Time;durP1;ratioP1;P1;durP2;ratioP2;P2;SDS_P1;SDS_P2;PMS_P1;PMS_P2;Temp;Humidity;BMP_temperature;BMP_pressure;BME280_temperature;BME280_humidity;BME280_pressure;Samples;Min_cycle;Max_cycle;Signal;HPM_P1;HPM_P2
2021/06/02 00:07:09;;;;;;;1999.90;999.90;;;;;;;16.65;51.45;101297.09;15681240;28;20056;-63
2021/06/02 00:14:43;;;;;;;1999.90;999.90;;;;;;;16.55;50.94;101294.81;15694650;28;20041;-63
2021/06/02 00:22:14;;;;;;;;;;;;;;;16.64;52.31;101303.09;15699067;28;20037;-64
2021/06/02 00:29:48;;;;;;;1999.90;999.90;;;;;;;16.52;51.58;101294.72;15710294;28;19920;-64
2021/06/02 00:37:21;;;;;;;1999.90;999.90;;;;;;;16.32;52.25;101288.91;15680986;28;20053;-64
2021/06/02 00:44:55;;;;;;;1999.90;999.90;;;;;;;16.29;52.96;101288.81;15728001;28;20079;-64
2021/06/02 00:52:26;;;;;;;1999.90;999.90;;;;;;;16.25;53.75;101302.78;15729502;28;20044;-64
2021/06/02 01:00:06;;;;;;;1999.90;999.90;;;;;;;16.14;55.39;101305.28;15706656;28;20045;-64
2021/06/02 01:07:39;;;;;;;1999.90;999.90;;;;;;;15.90;55.66;101298.91;15728950;28;20045;-63
2021/06/02 01:15:13;;;;;;;1999.90;999.90;;;;;;;15.63;56.08;101315.38;15692847;28;20045;-63
2021/06/02 01:22:47;;;;;;;1999.90;999.90;;;;;;;15.52;56.58;101316.97;15708954;28;20079;-63
2021/06/02 01:30:21;;;;;;;1999.90;999.90;;;;;;;15.68;56.75;101323.56;15721256;28;20076;-64
2021/06/02 01:38:22;;;;;;;1999.90;999.90;;;;;;;15.50;56.20;101322.13;15726396;28;20087;-64
2021/06/02 01:46:22;;;;;;;1999.90;999.90;;;;;;;15.19;56.10;101328.31;15711364;28;20056;-63
2021/06/02 01:54:26;;;;;;;1999.90;999.90;;;;;;;15.17;56.12;101325.06;15690915;28;20037;-63
2021/06/02 02:02:29;;;;;;;1999.90;999.90;;;;;;;15.25;56.81;101329.75;15715359;28;20056;-63
2021/06/02 02:10:20;;;;;;;1999.90;999.90;;;;;;;15.31;58.02;101337.59;15737350;28;20127;-64
2021/06/02 02:18:21;;;;;;;1999.90;999.90;;;;;;;15.01;59.65;101334.19;15724930;28;20099;-63
2021/06/02 02:25:57;;;;;;;1999.90;999.90;;;;;;;15.14;59.56;101351.88;15693162;28;20397;-64
2021/06/02 02:33:44;;;;;;;1999.90;999.90;;;;;;;15.03;60.79;101345.06;15723198;28;20059;-64
2021/06/02 02:41:38;;;;;;;1999.90;999.90;;;;;;;15.04;61.49;101340.25;15699457;28;20045;-63
2021/06/02 02:49:26;;;;;;;1999.90;999.90;;;;;;;15.02;61.72;101343.44;15701884;28;20045;-63
2021/06/02 02:57:03;;;;;;;1999.90;999.90;;;;;;;14.96;62.01;101330.75;15698516;28;20094;-63
2021/06/02 03:04:45;;;;;;;1999.90;999.90;;;;;;;14.81;63.19;101356.72;15724613;28;20098;-64
2021/06/02 03:12:25;;;;;;;1999.90;999.90;;;;;;;14.61;63.64;101362.03;15735887;28;20044;-64
2021/06/02 03:20:10;;;;;;;1999.90;999.90;;;;;;;14.57;64.28;101369.47;15712783;28;20228;-63
2021/06/02 03:27:56;;;;;;;1999.90;999.90;;;;;;;14.57;65.02;101363.88;15702425;28;20052;-63
2021/06/02 03:35:37;;;;;;;1999.90;999.90;;;;;;;14.55;65.46;101365.38;15716429;28;20040;-63
2021/06/02 03:43:17;;;;;;;1999.90;999.90;;;;;;;14.38;66.72;101378.38;15721472;28;20045;-63
2021/06/02 03:51:10;;;;;;;1999.90;999.90;;;;;;;14.42;66.95;101368.09;15712297;28;20041;-63
2021/06/02 03:58:47;;;;;;;;;;;;;;;14.35;67.43;101376.25;15697586;28;20049;-63
2021/06/02 04:06:27;;;;;;;1999.90;999.90;;;;;;;14.44;67.06;101391.06;15702436;28;19978;-63
2021/06/02 04:14:00;;;;;;;1999.90;999.90;;;;;;;14.36;67.76;101394.72;15706507;28;20501;-63
2021/06/02 04:21:34;;;;;;;1999.90;999.90;;;;;;;14.34;67.81;101402.69;15712672;28;20069;-64
2021/06/02 04:29:09;;;;;;;1999.90;999.90;;;;;;;14.51;68.12;101412.19;15714971;28;20417;-63
2021/06/02 04:36:44;;;;;;;1999.90;999.90;;;;;;;14.29;68.54;101394.47;15762725;28;20113;-64
2021/06/02 04:44:16;;;;;;;1999.90;999.90;;;;;;;14.34;68.58;101396.25;15748739;28;20033;-64
2021/06/02 04:52:25;;;;;;;1999.90;999.90;;;;;;;14.28;68.67;101384.41;15728032;28;20521;-63
2021/06/02 05:00:22;;;;;;;1999.90;999.90;;;;;;;14.36;68.96;101400.34;15723167;28;20398;-63
2021/06/02 05:08:26;;;;;;;1999.90;999.90;;;;;;;14.64;68.00;101400.66;15707816;28;20067;-63
2021/06/02 05:16:29;;;;;;;1999.90;999.90;;;;;;;14.97;67.68;101405.47;15718095;28;20053;-64
2021/06/02 05:24:42;;;;;;;1999.90;999.90;;;;;;;15.19;67.27;101399.44;15700746;28;20045;-64
2021/06/02 05:32:48;;;;;;;1999.90;999.90;;;;;;;15.26;66.26;101413.75;15697242;28;20051;-64
2021/06/02 05:40:55;;;;;;;1999.90;999.90;;;;;;;15.89;64.09;101405.03;15744971;28;20051;-65
2021/06/02 05:48:49;;;;;;;1999.90;999.90;;;;;;;17.12;60.96;101416.81;15645268;28;20041;-64
2021/06/02 05:57:03;;;;;;;1999.90;999.90;;;;;;;17.76;59.29;101429.81;15684890;28;20116;-63
2021/06/02 06:05:02;;;;;;;1999.90;999.90;;;;;;;18.27;57.37;101446.78;15682832;28;20055;-64
2021/06/02 06:13:10;;;;;;;1999.90;999.90;;;;;;;18.85;56.22;101464.66;15676386;28;20128;-65
2021/06/02 06:21:18;;;;;;;1999.90;999.90;;;;;;;19.21;54.45;101466.22;15683680;28;20049;-65
2021/06/02 06:28:57;;;;;;;1999.90;999.90;;;;;;;19.19;55.09;101467.78;15650061;28;20048;-65
2021/06/02 06:36:29;;;;;;;1999.90;999.90;;;;;;;20.63;53.56;101473.53;15683107;28;20041;-65
2021/06/02 06:44:03;;;;;;;1999.90;999.90;;;;;;;20.42;52.22;101467.50;15685449;28;20048;-65
2021/06/02 06:51:37;;;;;;;1999.90;999.90;;;;;;;21.04;51.70;101471.63;15685288;28;20049;-63
2021/06/02 06:59:10;;;;;;;1999.90;999.90;;;;;;;20.80;53.31;101469.31;15743287;22;20451;-63
2021/06/02 07:06:43;;;;;;;1999.90;999.90;;;;;;;22.13;48.93;101466.72;15697525;28;20076;-64
2021/06/02 07:14:24;;;;;;;1999.90;999.90;;;;;;;21.42;50.31;101461.16;15594876;28;20037;-64
2021/06/02 07:21:57;;;;;;;1999.90;999.90;;;;;;;22.10;49.14;101461.81;15593929;28;20053;-64
2021/06/02 07:29:30;;;;;;;1999.90;999.90;;;;;;;22.19;49.78;101468.78;15628467;28;20543;-65
2021/06/02 07:37:02;;;;;;;1999.90;999.90;;;;;;;23.47;49.92;101465.78;15620523;28;20044;-65
2021/06/02 07:44:35;;;;;;;1999.90;999.90;;;;;;;23.48;47.36;101460.91;15614285;28;20071;-64
2021/06/02 07:52:07;;;;;;;1999.90;999.90;;;;;;;23.31;46.94;101468.16;15622383;28;20042;-65
2021/06/02 07:59:40;;;;;;;1999.90;999.90;;;;;;;24.64;45.72;101469.88;15622788;28;20054;-65
2021/06/02 08:07:14;;;;;;;1999.90;999.90;;;;;;;23.98;45.45;101469.53;15622165;28;20041;-65
2021/06/02 08:14:47;;;;;;;1999.90;999.90;;;;;;;25.45;46.93;101482.22;15627530;28;20041;-65
2021/06/02 08:22:18;;;;;;;1999.90;999.90;;;;;;;25.19;45.04;101478.66;15640854;28;20069;-63
2021/06/02 08:29:53;;;;;;;1999.90;999.90;;;;;;;25.13;42.92;101477.47;15680632;28;20120;-63
2021/06/02 08:37:25;;;;;;;1999.90;999.90;;;;;;;25.70;42.45;101482.88;15680926;28;20075;-63
2021/06/02 08:44:58;;;;;;;1999.90;999.90;;;;;;;24.88;42.94;101471.81;15682062;28;20041;-63
2021/06/02 08:52:35;;;;;;;1999.90;999.90;;;;;;;26.35;41.66;101469.66;15644866;28;20486;-64
2021/06/02 09:00:11;;;;;;;1999.90;999.90;;;;;;;26.73;42.00;101481.16;15681063;28;20049;-63
2021/06/02 09:07:42;;;;;;;1999.90;999.90;;;;;;;26.91;40.88;101475.22;15683254;28;20049;-63
2021/06/02 09:15:19;;;;;;;1999.90;999.90;;;;;;;26.85;40.62;101479.78;15662965;28;20115;-64
2021/06/02 09:22:50;;;;;;;1999.90;999.90;;;;;;;28.13;38.72;101480.84;15616720;28;20291;-66
2021/06/02 09:30:25;;;;;;;1999.90;999.90;;;;;;;27.20;39.34;101470.78;15659669;28;20111;-65
2021/06/02 09:37:58;;;;;;;1999.90;999.90;;;;;;;27.78;40.14;101479.38;15664301;28;20041;-64
2021/06/02 09:45:31;;;;;;;;;;;;;;;28.45;38.08;101483.16;15657970;28;20049;-65
2021/06/02 09:53:04;;;;;;;1999.90;999.90;;;;;;;28.56;38.03;101483.81;15653187;28;20428;-65
2021/06/02 10:00:39;;;;;;;1999.90;999.90;;;;;;;28.71;37.05;101479.38;15655858;28;20049;-65
2021/06/02 10:08:23;;;;;;;1999.90;999.90;;;;;;;28.74;34.81;101477.69;15734104;28;20063;-65
2021/06/02 10:15:56;;;;;;;1999.90;999.90;;;;;;;29.78;32.65;101482.03;15700486;28;20045;-65
2021/06/02 10:23:30;;;;;;;1999.90;999.90;;;;;;;29.81;35.61;101484.84;15646628;28;20376;-65
2021/06/02 10:31:05;;;;;;;1999.90;999.90;;;;;;;30.15;31.59;101501.69;15620569;28;20124;-64
2021/06/02 10:38:43;;;;;;;1999.90;999.90;;;;;;;30.54;32.40;101499.03;15725037;28;20086;-65
2021/06/02 10:46:21;;;;;;;1999.90;999.90;;;;;;;29.43;33.47;101495.16;15733146;28;20055;-65
2021/06/02 10:54:06;;;;;;;1999.90;999.90;;;;;;;31.94;32.80;101494.47;15713490;28;20044;-65
2021/06/02 11:02:02;;;;;;;1999.90;999.90;;;;;;;31.54;31.08;101494.06;15709695;28;20456;-65
2021/06/02 11:09:50;;;;;;;1999.90;999.90;;;;;;;31.31;32.43;101492.31;15672399;28;20458;-65
2021/06/02 11:17:23;;;;;;;1999.90;999.90;;;;;;;32.87;29.55;101497.03;15671242;28;20045;-65
2021/06/02 11:24:57;;;;;;;1999.90;999.90;;;;;;;31.41;30.31;101493.25;15691192;28;20374;-65
2021/06/02 11:32:31;;;;;;;1999.90;999.90;;;;;;;30.97;31.88;101487.16;15730958;28;20062;-65
2021/06/02 11:40:06;;;;;;;1999.90;999.90;;;;;;;29.84;33.41;101486.81;15733226;28;20071;-64
2021/06/02 11:47:46;;;;;;;1999.90;999.90;;;;;;;27.62;35.17;101480.03;15713494;28;20323;-63
2021/06/02 11:55:18;;;;;;;1999.90;999.90;;;;;;;26.81;35.96;101488.44;15730788;28;20051;-62
2021/06/02 12:02:54;;;;;;;1999.90;999.90;;;;;;;26.76;36.57;101483.97;15711431;28;20051;-62
2021/06/02 12:10:27;;;;;;;1999.90;999.90;;;;;;;26.81;34.90;101479.84;15712918;28;20428;-63
2021/06/02 12:18:00;;;;;;;1999.90;999.90;;;;;;;27.45;34.07;101476.16;15654184;28;20447;-63
2021/06/02 12:25:34;;;;;;;1999.90;999.90;;;;;;;28.62;33.88;101490.63;15667743;28;20521;-62
2021/06/02 12:33:08;;;;;;;1999.90;999.90;;;;;;;28.63;33.32;101479.97;15670191;28;20071;-63
2021/06/02 12:40:43;;;;;;;1999.90;999.90;;;;;;;27.37;35.12;101477.50;15681625;28;20109;-63
2021/06/02 12:48:18;;;;;;;1999.90;999.90;;;;;;;27.44;33.51;101470.88;15676710;28;20045;-64
2021/06/02 12:55:51;;;;;;;1999.90;999.90;;;;;;;27.44;33.02;101468.81;15685237;22;20045;-62
2021/06/02 13:03:24;;;;;;;1999.90;999.90;;;;;;;27.29;32.70;101470.25;15664990;28;20048;-64
2021/06/02 13:11:05;;;;;;;1999.90;999.90;;;;;;;27.09;30.59;101469.28;15679255;28;20056;-63
2021/06/02 13:18:38;;;;;;;1999.90;999.90;;;;;;;27.74;32.84;101467.97;15726225;28;20097;-64
2021/06/02 13:26:12;;;;;;;1999.90;999.90;;;;;;;28.01;30.91;101467.94;15683878;28;20052;-63
2021/06/02 13:33:47;;;;;;;1999.90;999.90;;;;;;;29.30;30.41;101469.16;15683628;28;20111;-62
2021/06/02 13:41:24;;;;;;;1999.90;999.90;;;;;;;28.34;30.36;101466.13;15648090;28;20141;-63
2021/06/02 13:48:57;;;;;;;1999.90;999.90;;;;;;;27.98;30.34;101463.06;15681771;28;20049;-63
2021/06/02 13:56:32;;;;;;;1999.90;999.90;;;;;;;27.54;30.82;101459.25;15681446;28;20048;-63
2021/06/02 14:04:08;;;;;;;1999.90;999.90;;;;;;;28.12;30.94;101454.22;15681233;28;20041;-64
2021/06/02 14:11:40;;;;;;;1999.90;999.90;;;;;;;27.91;31.43;101454.59;15680013;28;20056;-63
2021/06/02 14:19:14;;;;;;;1999.90;999.90;;;;;;;27.12;32.91;101442.66;15679780;28;20041;-63
2021/06/02 14:26:47;;;;;;;1999.90;999.90;;;;;;;26.75;33.39;101441.44;15662324;28;20060;-63
2021/06/02 14:34:20;;;;;;;1999.90;999.90;;;;;;;27.26;32.18;101449.00;15644866;28;20049;-63
2021/06/02 14:41:53;;;;;;;1999.90;999.90;;;;;;;26.84;32.02;101444.63;15661480;28;20044;-62
2021/06/02 14:49:27;;;;;;;1999.90;999.90;;;;;;;26.82;31.62;101443.44;15660896;28;20049;-62
2021/06/02 15:15:24;;;;;;;1999.90;999.90;;;;;;;26.33;34.09;101445.56;15676112;28;20174;-64
2021/06/02 15:32:09;;;;;;;1999.90;999.90;;;;;;;26.00;35.47;101449.97;15670448;28;20044;-60
2021/06/02 15:39:42;;;;;;;1999.90;999.90;;;;;;;25.98;34.00;101450.41;15673578;28;20083;-61
2021/06/02 15:47:15;;;;;;;1999.90;999.90;;;;;;;26.29;34.80;101441.94;15668675;28;20405;-60
2021/06/02 15:54:50;;;;;;;1999.90;999.90;;;;;;;26.50;34.45;101446.66;15669356;28;20075;-63
2021/06/02 16:02:23;;;;;;;1999.90;999.90;;;;;;;27.30;34.01;101446.06;15655493;28;20079;-61
2021/06/02 16:09:54;;;;;;;1999.90;999.90;;;;;;;26.79;33.56;101450.84;15681553;28;20049;-65
2021/06/02 16:17:27;;;;;;;1999.90;999.90;;;;;;;26.15;35.12;101440.84;15608159;28;20048;-64
2021/06/02 16:25:00;;;;;;;1999.90;999.90;;;;;;;25.97;35.57;101448.78;15660974;28;20053;-64
2021/06/02 16:32:36;;;;;;;1999.90;999.90;;;;;;;25.76;35.20;101458.34;15684321;28;20060;-63
2021/06/02 16:40:09;;;;;;;1999.90;999.90;;;;;;;25.75;35.12;101461.63;15666467;28;20387;-62
2021/06/02 16:47:41;;;;;;;1999.90;999.90;;;;;;;25.32;36.21;101462.69;15684642;28;20447;-62
2021/06/02 16:55:14;;;;;;;1999.90;999.90;;;;;;;25.13;36.77;101465.25;15684230;28;20048;-65
2021/06/02 17:02:47;;;;;;;1999.90;999.90;;;;;;;24.61;39.10;101482.94;15679601;28;20049;-63
2021/06/02 17:10:19;;;;;;;1999.90;999.90;;;;;;;24.46;39.63;101484.16;15699124;28;20057;-60
2021/06/02 17:17:55;;;;;;;1999.90;999.90;;;;;;;24.36;41.16;101499.25;15686769;28;20037;-57
2021/06/02 17:25:28;;;;;;;1999.90;999.90;;;;;;;23.97;43.19;101517.19;15696200;28;20041;-61
2021/06/02 17:33:01;;;;;;;1999.90;999.90;;;;;;;23.98;43.03;101526.53;15710650;28;20489;-61
2021/06/02 17:40:35;;;;;;;1999.90;999.90;;;;;;;24.07;42.11;101522.06;15684695;28;20055;-59
2021/06/02 17:48:11;;;;;;;1999.90;999.90;;;;;;;23.61;43.30;101516.28;15694130;28;20049;-64
2021/06/02 17:55:44;;;;;;;1999.90;999.90;;;;;;;23.24;44.78;101525.09;15688356;28;20575;-62
2021/06/02 18:03:18;;;;;;;1999.90;999.90;;;;;;;23.47;45.31;101539.84;15691736;28;20419;-63
2021/06/02 18:10:51;;;;;;;1999.90;999.90;;;;;;;23.17;46.10;101539.31;15653524;28;20040;-59
2021/06/02 18:18:29;;;;;;;;;;;;;;;23.08;48.63;101536.81;15683100;28;20037;-58
2021/06/02 18:26:04;;;;;;;1999.90;999.90;;;;;;;23.16;47.05;101549.06;15680432;28;19921;-60
2021/06/02 18:33:39;;;;;;;1999.90;999.90;;;;;;;23.08;47.12;101556.75;15660462;28;20093;-59
2021/06/02 18:41:12;;;;;;;1999.90;999.90;;;;;;;22.77;47.66;101558.16;15666240;28;20099;-60
2021/06/02 18:48:46;;;;;;;1999.90;999.90;;;;;;;22.60;47.80;101573.06;15679536;28;20521;-60
2021/06/02 18:56:19;;;;;;;1999.90;999.90;;;;;;;22.39;47.44;101580.22;15724707;28;20040;-62
2021/06/02 19:03:52;;;;;;;1999.90;999.90;;;;;;;22.44;47.11;101579.88;15685217;28;20056;-64
2021/06/02 19:11:23;;;;;;;1999.90;999.90;;;;;;;22.33;46.80;101583.84;15637434;28;20652;-62
2021/06/02 19:18:56;;;;;;;1999.90;999.90;;;;;;;21.95;47.14;101594.41;15739754;28;20036;-65
2021/06/02 19:26:28;;;;;;;1999.90;999.90;;;;;;;21.76;47.25;101603.91;15721258;28;20044;-65
2021/06/02 19:34:02;;;;;;;1999.90;999.90;;;;;;;21.50;46.95;101606.88;15666052;28;20083;-64
2021/06/02 19:41:34;;;;;;;1999.90;999.90;;;;;;;21.46;46.88;101623.03;15685558;28;20037;-63
2021/06/02 19:49:07;;;;;;;1999.90;999.90;;;;;;;21.32;46.86;101624.47;15672277;28;20045;-62
2021/06/02 19:56:38;;;;;;;;;;;;;;;21.33;47.66;101643.16;15678232;28;20033;-63
2021/06/02 20:04:11;;;;;;;1999.90;999.90;;;;;;;21.00;50.56;101645.88;15724111;28;20353;-63
2021/06/02 20:11:43;;;;;;;1999.90;999.90;;;;;;;20.77;48.79;101650.78;15670327;28;20041;-61
2021/06/02 20:19:16;;;;;;;1999.90;999.90;;;;;;;20.73;50.72;101645.03;15688537;28;20044;-63
2021/06/02 20:26:48;;;;;;;1999.90;999.90;;;;;;;20.35;50.26;101654.50;15675150;28;20056;-61
2021/06/02 20:34:22;;;;;;;1999.90;999.90;;;;;;;20.34;51.44;101647.19;15662714;28;20172;-61
2021/06/02 20:41:56;;;;;;;1999.90;999.90;;;;;;;19.93;50.73;101644.00;15676541;28;20055;-61
2021/06/02 20:49:31;;;;;;;1999.90;999.90;;;;;;;20.22;48.82;101662.38;15690864;28;20051;-62
2021/06/02 20:57:07;;;;;;;1999.90;999.90;;;;;;;20.30;48.82;101675.44;15700305;28;20045;-63
2021/06/02 21:04:42;;;;;;;1999.90;999.90;;;;;;;20.11;50.58;101673.50;15646755;28;20490;-62
2021/06/02 21:12:14;;;;;;;1999.90;999.90;;;;;;;19.83;51.57;101672.91;15672265;28;20060;-63
2021/06/02 21:19:47;;;;;;;1999.90;999.90;;;;;;;19.67;52.36;101681.47;15697300;28;20520;-64
2021/06/02 21:27:19;;;;;;;;;;;;;;;19.15;53.73;101688.38;15703325;28;20071;-64
2021/06/02 21:34:52;;;;;;;1999.90;999.90;;;;;;;19.19;53.47;101685.66;15713893;28;19928;-62
2021/06/02 21:42:23;;;;;;;1999.90;999.90;;;;;;;19.01;53.81;101697.34;15714438;28;20110;-62
2021/06/02 21:49:57;;;;;;;1999.90;999.90;;;;;;;18.97;53.46;101696.44;15704183;28;20047;-63
2021/06/02 21:57:29;;;;;;;1999.90;999.90;;;;;;;18.69;54.36;101702.19;15694553;28;20459;-64
2021/06/02 22:05:03;;;;;;;1999.90;999.90;;;;;;;18.64;54.97;101702.47;15738462;28;20094;-64
2021/06/02 22:12:34;;;;;;;1999.90;999.90;;;;;;;18.53;55.14;101714.66;15678907;28;20060;-64
2021/06/02 22:20:09;;;;;;;1999.90;999.90;;;;;;;18.22;56.43;101723.88;15714409;28;20426;-64
2021/06/02 22:27:41;;;;;;;1999.90;999.90;;;;;;;17.94;57.45;101738.03;15690430;28;20049;-64
2021/06/02 22:35:16;;;;;;;1999.90;999.90;;;;;;;17.81;58.44;101737.22;15687889;28;20040;-64
2021/06/02 22:42:50;;;;;;;1999.90;999.90;;;;;;;17.51;58.94;101731.06;15713744;28;20056;-63
2021/06/02 22:50:27;;;;;;;1999.90;999.90;;;;;;;17.32;58.57;101731.69;15689184;28;20044;-62
2021/06/02 22:57:59;;;;;;;1999.90;999.90;;;;;;;17.42;58.43;101745.31;15701814;28;20144;-63
2021/06/02 23:05:32;;;;;;;1999.90;999.90;;;;;;;17.34;58.58;101743.44;15741836;28;20508;-63
2021/06/02 23:13:04;;;;;;;1999.90;999.90;;;;;;;17.13;58.21;101742.75;15684932;28;20033;-63
2021/06/02 23:20:39;;;;;;;1999.90;999.90;;;;;;;17.13;57.71;101746.38;15696978;28;20052;-61
2021/06/02 23:28:11;;;;;;;1999.90;999.90;;;;;;;17.16;59.21;101742.84;15700426;28;20041;-63
2021/06/02 23:35:44;;;;;;;1999.90;999.90;;;;;;;16.92;58.16;101740.03;15678265;28;20049;-62
2021/06/02 23:43:16;;;;;;;1999.90;999.90;;;;;;;16.97;57.80;101742.59;15679678;28;20229;-63
2021/06/02 23:50:49;;;;;;;1999.90;999.90;;;;;;;17.06;57.71;101745.31;15722763;28;20095;-61
2021/06/02 23:58:21;;;;;;;1999.90;999.90;;;;;;;17.15;58.31;101752.50;15718705;28;20044;-63
